Time,TemperatureF,DewpointF,PressureIn,WindDirection,WindDirectionDegrees,WindSpeedMPH,WindSpeedGustMPH,Humidity,HourlyPrecipIn,Conditions,Clouds,dailyrainin,SoftwareType,DateUTC
2013-03-29 00:02:00,42.0,22.0,-100.00,SW,225,13.0,16.0,42,-99.99,,,-99.99,,2013-03-29 06:02:00,
2013-03-29 00:11:00,42.0,22.0,-100.00,SW,230,14.0,17.0,43,-99.99,,,-99.99,,2013-03-29 06:11:00,
2013-03-29 00:22:00,42.0,22.0,-100.00,SW,230,12.0,17.0,43,-99.99,,,-99.99,,2013-03-29 06:22:00,
2013-03-29 00:32:00,42.0,22.0,-100.00,SW,220,10.0,14.0,44,-99.99,,,-99.99,,2013-03-29 06:32:00,
2013-03-29 00:41:00,42.0,22.0,-100.00,SW,220,12.0,14.0,45,-99.99,,,-99.99,,2013-03-29 06:41:00,
2013-03-29 00:51:00,41.0,22.0,-100.00,SW,220,13.0,17.0,46,-99.99,,,-99.99,,2013-03-29 06:51:00,
2013-03-29 01:02:00,43.0,23.0,-100.00,SW,230,15.0,18.0,44,-99.99,,,-99.99,,2013-03-29 07:02:00,
2013-03-29 01:11:00,44.0,23.0,-100.00,WSW,240,14.0,19.0,43,-99.99,,,-99.99,,2013-03-29 07:11:00,
2013-03-29 01:21:00,44.0,23.0,-100.00,WSW,240,17.0,22.0,43,-99.99,,,-99.99,,2013-03-29 07:21:00,
2013-03-29 01:32:00,44.0,23.0,-100.00,WSW,255,11.0,19.0,43,-99.99,,,-99.99,,2013-03-29 07:32:00,
2013-03-29 01:41:00,44.0,23.0,-100.00,WSW,255,13.0,18.0,41,-99.99,,,-99.99,,2013-03-29 07:41:00,
2013-03-29 01:52:00,44.0,23.0,-100.00,SW,235,9.0,16.0,41,-99.99,,,-99.99,,2013-03-29 07:52:00,
2013-03-29 02:01:00,44.0,22.0,-100.00,West,260,10.0,12.0,41,-99.99,,,-99.99,,2013-03-29 08:01:00,
2013-03-29 02:11:00,44.0,22.0,-100.00,West,265,10.0,14.0,41,-99.99,,,-99.99,,2013-03-29 08:11:00,
2013-03-29 02:21:00,44.0,22.0,-100.00,West,265,7.0,11.0,41,-99.99,,,-99.99,,2013-03-29 08:21:00,
2013-03-29 02:32:00,44.0,22.0,-100.00,West,265,9.0,11.0,41,-99.99,,,-99.99,,2013-03-29 08:32:00,
2013-03-29 02:41:00,43.0,22.0,-100.00,WSW,245,6.0,9.0,42,-99.99,,,-99.99,,2013-03-29 08:41:00,
2013-03-29 02:51:00,42.0,21.0,-100.00,WSW,245,7.0,8.0,42,-99.99,,,-99.99,,2013-03-29 08:51:00,
2013-03-29 03:02:00,43.0,21.0,-100.00,WSW,250,4.0,10.0,41,-99.99,,,-99.99,,2013-03-29 09:02:00,
2013-03-29 03:11:00,42.0,21.0,-100.00,WSW,240,6.0,7.0,42,-99.99,,,-99.99,,2013-03-29 09:11:00,
2013-03-29 03:21:00,40.0,21.0,-100.00,SW,225,2.0,10.0,46,-99.99,,,-99.99,,2013-03-29 09:21:00,
2013-03-29 03:32:00,38.0,21.0,-100.00,SW,235,7.0,10.0,49,-99.99,,,-99.99,,2013-03-29 09:32:00,
2013-03-29 03:42:00,40.0,22.0,-100.00,SW,235,11.0,17.0,48,-99.99,,,-99.99,,2013-03-29 09:42:00,
2013-03-29 03:52:00,40.0,22.0,-100.00,WSW,240,11.0,13.0,47,-99.99,,,-99.99,,2013-03-29 09:52:00,
2013-03-29 04:02:00,39.0,22.0,-100.00,SW,235,9.0,15.0,49,-99.99,,,-99.99,,2013-03-29 10:02:00,
2013-03-29 04:11:00,39.0,22.0,-100.00,SW,230,14.0,16.0,50,-99.99,,,-99.99,,2013-03-29 10:11:00,
2013-03-29 04:22:00,40.0,22.0,-100.00,SW,235,13.0,14.0,49,-99.99,,,-99.99,,2013-03-29 10:22:00,
2013-03-29 04:33:00,40.0,22.0,-100.00,WSW,245,11.0,16.0,48,-99.99,,,-99.99,,2013-03-29 10:33:00,
2013-03-29 04:42:00,42.0,23.0,-100.00,WSW,245,12.0,15.0,46,-99.99,,,-99.99,,2013-03-29 10:42:00,
2013-03-29 04:52:00,42.0,22.0,-100.00,WSW,245,11.0,14.0,45,-99.99,,,-99.99,,2013-03-29 10:52:00,
2013-03-29 05:02:00,42.0,22.0,-100.00,WSW,250,9.0,14.0,46,-99.99,,,-99.99,,2013-03-29 11:02:00,
2013-03-29 05:11:00,42.0,22.0,-100.00,West,260,11.0,14.0,44,-99.99,,,-99.99,,2013-03-29 11:11:00,
2013-03-29 05:21:00,41.0,22.0,-100.00,West,260,8.0,11.0,45,-99.99,,,-99.99,,2013-03-29 11:21:00,
2013-03-29 05:32:00,42.0,22.0,-100.00,WSW,255,7.0,9.0,45,-99.99,,,-99.99,,2013-03-29 11:32:00,
2013-03-29 05:42:00,40.0,22.0,-100.00,SW,225,11.0,12.0,47,-99.99,,,-99.99,,2013-03-29 11:42:00,
2013-03-29 05:52:00,39.0,22.0,-100.00,SW,230,11.0,13.0,50,-99.99,,,-99.99,,2013-03-29 11:52:00,
2013-03-29 06:02:00,39.0,22.0,-100.00,West,280,6.0,10.0,49,-99.99,,,-99.99,,2013-03-29 12:02:00,
2013-03-29 06:11:00,41.0,22.0,-100.00,West,260,7.0,9.0,47,-99.99,,,-99.99,,2013-03-29 12:11:00,
2013-03-29 06:21:00,40.0,22.0,-100.00,WNW,285,4.0,7.0,47,-99.99,,,-99.99,,2013-03-29 12:21:00,
2013-03-29 06:32:00,40.0,22.0,-100.00,WSW,250,2.0,-999.0,47,-99.99,,,-99.99,,2013-03-29 12:32:00,
2013-03-29 06:42:00,40.0,22.0,-100.00,WNW,285,5.0,7.0,48,-99.99,,,-99.99,,2013-03-29 12:42:00,
2013-03-29 06:51:00,40.0,22.0,-100.00,NW,305,3.0,5.0,48,-99.99,,,-99.99,,2013-03-29 12:51:00,
2013-03-29 07:02:00,40.0,22.0,-100.00,West,265,3.0,4.0,47,-99.99,,,-99.99,,2013-03-29 13:02:00,
2013-03-29 07:11:00,40.0,22.0,-100.00,West,260,1.0,4.0,47,-99.99,,,-99.99,,2013-03-29 13:11:00,
2013-03-29 07:21:00,39.0,21.0,-100.00,West,280,1.0,3.0,48,-99.99,,,-99.99,,2013-03-29 13:21:00,
2013-03-29 07:32:00,40.0,21.0,-100.00,West,260,3.0,4.0,47,-99.99,,,-99.99,,2013-03-29 13:32:00,
2013-03-29 07:42:00,40.0,22.0,-100.00,WNW,290,2.0,4.0,46,-99.99,,,-99.99,,2013-03-29 13:42:00,
2013-03-29 07:52:00,41.0,22.0,-100.00,West,275,1.0,3.0,46,-99.99,,,-99.99,,2013-03-29 13:52:00,
2013-03-29 08:02:00,42.0,22.0,-100.00,West,270,1.0,1.0,44,-99.99,,,-99.99,,2013-03-29 14:02:00,
2013-03-29 08:11:00,42.0,22.0,-100.00,WSW,250,3.0,3.0,44,-99.99,,,-99.99,,2013-03-29 14:11:00,
2013-03-29 08:21:00,40.0,22.0,-100.00,SW,225,6.0,7.0,49,-99.99,,,-99.99,,2013-03-29 14:21:00,
2013-03-29 08:32:00,40.0,23.0,-100.00,SW,230,6.0,7.0,49,-99.99,,,-99.99,,2013-03-29 14:32:00,
2013-03-29 08:42:00,42.0,24.0,-100.00,SW,225,6.0,6.0,47,-99.99,,,-99.99,,2013-03-29 14:42:00,
2013-03-29 08:52:00,44.0,25.0,-100.00,SW,235,6.0,7.0,46,-99.99,,,-99.99,,2013-03-29 14:52:00,
2013-03-29 09:02:00,44.0,25.0,-100.00,SW,235,6.0,9.0,46,-99.99,,,-99.99,,2013-03-29 15:02:00,
2013-03-29 09:11:00,43.0,25.0,-100.00,SW,225,6.0,9.0,47,-99.99,,,-99.99,,2013-03-29 15:11:00,
2013-03-29 09:21:00,45.0,26.0,-100.00,SW,220,7.0,9.0,45,-99.99,,,-99.99,,2013-03-29 15:21:00,
2013-03-29 09:33:00,45.0,25.0,-100.00,WSW,240,8.0,10.0,44,-99.99,,,-99.99,,2013-03-29 15:33:00,
2013-03-29 09:42:00,46.0,25.0,-100.00,West,270,6.0,10.0,43,-99.99,,,-99.99,,2013-03-29 15:42:00,
2013-03-29 09:52:00,46.0,24.0,-100.00,West,260,5.0,6.0,42,-99.99,,,-99.99,,2013-03-29 15:52:00,
2013-03-29 10:03:00,49.0,25.0,-100.00,West,260,1.0,6.0,39,-99.99,,,-99.99,,2013-03-29 16:03:00,
2013-03-29 10:12:00,50.0,25.0,-100.00,SW,235,1.0,4.0,37,-99.99,,,-99.99,,2013-03-29 16:12:00,
2013-03-29 10:22:00,52.0,24.0,-100.00,SSE,150,1.0,3.0,33,-99.99,,,-99.99,,2013-03-29 16:22:00,
2013-03-29 10:32:00,51.0,24.0,-100.00,SSW,210,2.0,4.0,34,-99.99,,,-99.99,,2013-03-29 16:32:00,
2013-03-29 10:41:00,54.0,25.0,-100.00,WNW,285,0.0,3.0,32,-99.99,,,-99.99,,2013-03-29 16:41:00,
2013-03-29 10:52:00,54.0,24.0,-100.00,SSW,200,1.0,4.0,31,-99.99,,,-99.99,,2013-03-29 16:52:00,
2013-03-29 11:02:00,55.0,24.0,-100.00,NNW,330,0.0,4.0,29,-99.99,,,-99.99,,2013-03-29 17:02:00,
2013-03-29 11:11:00,55.0,24.0,-100.00,NNW,335,1.0,2.0,29,-99.99,,,-99.99,,2013-03-29 17:11:00,
2013-03-29 11:22:00,53.0,23.0,-100.00,SW,235,0.0,6.0,30,-99.99,,,-99.99,,2013-03-29 17:22:00,
2013-03-29 11:32:00,54.0,24.0,-100.00,NNW,345,2.0,6.0,30,-99.99,,,-99.99,,2013-03-29 17:32:00,
2013-03-29 11:41:00,56.0,24.0,-100.00,NW,310,0.0,4.0,29,-99.99,,,-99.99,,2013-03-29 17:41:00,
2013-03-29 11:52:00,53.0,24.0,-100.00,SSW,205,4.0,6.0,31,-99.99,,,-99.99,,2013-03-29 17:52:00,
2013-03-29 12:02:00,54.0,24.0,-100.00,South,175,4.0,8.0,31,-99.99,,,-99.99,,2013-03-29 18:02:00,
2013-03-29 12:11:00,54.0,24.0,-100.00,SW,215,2.0,8.0,30,-99.99,,,-99.99,,2013-03-29 18:11:00,
2013-03-29 12:22:00,54.0,23.0,-100.00,SSE,165,3.0,6.0,29,-99.99,,,-99.99,,2013-03-29 18:22:00,
2013-03-29 12:32:00,56.0,23.0,-100.00,East,100,1.0,4.0,27,-99.99,,,-99.99,,2013-03-29 18:32:00,
2013-03-29 12:42:00,57.0,24.0,-100.00,SW,235,0.0,4.0,27,-99.99,,,-99.99,,2013-03-29 18:42:00,
2013-03-29 12:51:00,54.0,23.0,-100.00,SW,220,6.0,8.0,29,-99.99,,,-99.99,,2013-03-29 18:51:00,
2013-03-29 13:02:00,55.0,23.0,-100.00,WSW,245,2.0,8.0,28,-99.99,,,-99.99,,2013-03-29 19:02:00,
2013-03-29 13:11:00,57.0,25.0,-100.00,WSW,255,6.0,10.0,29,-99.99,,,-99.99,,2013-03-29 19:11:00,
2013-03-29 13:21:00,57.0,26.0,-100.00,WSW,250,8.0,12.0,29,-99.99,,,-99.99,,2013-03-29 19:21:00,
2013-03-29 13:32:00,58.0,25.0,-100.00,NNW,345,1.0,12.0,27,-99.99,,,-99.99,,2013-03-29 19:32:00,
2013-03-29 13:42:00,55.0,23.0,-100.00,WSW,240,6.0,12.0,28,-99.99,,,-99.99,,2013-03-29 19:42:00,
2013-03-29 13:52:00,55.0,23.0,-100.00,South,190,7.0,9.0,29,-99.99,,,-99.99,,2013-03-29 19:52:00,
2013-03-29 14:02:00,53.0,22.0,-100.00,West,275,3.0,9.0,29,-99.99,,,-99.99,,2013-03-29 20:02:00,
2013-03-29 14:11:00,54.0,22.0,-100.00,NW,315,7.0,11.0,29,-99.99,,,-99.99,,2013-03-29 20:11:00,
2013-03-29 14:21:00,52.0,22.0,-100.00,NE,35,9.0,12.0,31,-99.99,,,-99.99,,2013-03-29 20:21:00,
2013-03-29 14:32:00,56.0,24.0,-100.00,West,280,1.0,16.0,29,-99.99,,,-99.99,,2013-03-29 20:32:00,
2013-03-29 14:41:00,58.0,24.0,-100.00,NW,305,1.0,6.0,27,-99.99,,,-99.99,,2013-03-29 20:41:00,
2013-03-29 14:51:00,53.0,22.0,-100.00,NE,50,6.0,12.0,29,-99.99,,,-99.99,,2013-03-29 20:51:00,
2013-03-29 15:02:00,52.0,22.0,-100.00,North,0,7.0,12.0,29,-99.99,,,-99.99,,2013-03-29 21:02:00,
2013-03-29 15:11:00,52.0,22.0,-100.00,North,0,7.0,12.0,30,-99.99,,,-99.99,,2013-03-29 21:11:00,
2013-03-29 15:21:00,52.0,22.0,-100.00,NNE,20,7.0,11.0,30,-99.99,,,-99.99,,2013-03-29 21:21:00,
2013-03-29 15:32:00,53.0,22.0,-100.00,North,0,6.0,11.0,29,-99.99,,,-99.99,,2013-03-29 21:32:00,
2013-03-29 15:42:00,54.0,22.0,-100.00,North,0,4.0,12.0,28,-99.99,,,-99.99,,2013-03-29 21:42:00,
2013-03-29 15:52:00,55.0,23.0,-100.00,West,270,1.0,6.0,27,-99.99,,,-99.99,,2013-03-29 21:52:00,
2013-03-29 16:02:00,58.0,24.0,-100.00,West,265,14.0,22.0,27,-99.99,,,-99.99,,2013-03-29 22:02:00,
2013-03-29 16:12:00,56.0,23.0,-100.00,West,270,17.0,22.0,27,-99.99,,,-99.99,,2013-03-29 22:12:00,
2013-03-29 16:22:00,55.0,23.0,-100.00,WSW,250,16.0,28.0,28,-99.99,,,-99.99,,2013-03-29 22:22:00,
2013-03-29 16:32:00,56.0,22.0,-100.00,NW,305,17.0,24.0,26,-99.99,,,-99.99,,2013-03-29 22:32:00,
2013-03-29 16:42:00,56.0,22.0,-100.00,WNW,290,19.0,26.0,25,-99.99,,,-99.99,,2013-03-29 22:42:00,
2013-03-29 16:52:00,57.0,21.0,-100.00,NW,305,20.0,26.0,24,-99.99,,,-99.99,,2013-03-29 22:52:00,
2013-03-29 17:02:00,56.0,20.0,-100.00,West,280,17.0,24.0,24,-99.99,,,-99.99,,2013-03-29 23:02:00,
2013-03-29 17:11:00,56.0,21.0,-100.00,WNW,300,16.0,24.0,25,-99.99,,,-99.99,,2013-03-29 23:11:00,
2013-03-29 17:22:00,52.0,20.0,-100.00,West,265,23.0,29.0,27,-99.99,,,-99.99,,2013-03-29 23:22:00,
2013-03-29 17:32:00,54.0,20.0,-100.00,WNW,290,24.0,30.0,27,-99.99,,,-99.99,,2013-03-29 23:32:00,
2013-03-29 17:41:00,54.0,20.0,-100.00,West,275,21.0,31.0,25,-99.99,,,-99.99,,2013-03-29 23:41:00,
2013-03-29 17:52:00,54.0,20.0,-100.00,WNW,285,22.0,29.0,25,-99.99,,,-99.99,,2013-03-29 23:52:00,
2013-03-29 18:02:00,54.0,20.0,-100.00,WNW,285,17.0,26.0,25,-99.99,,,-99.99,,2013-03-30 00:02:00,
2013-03-29 18:11:00,54.0,20.0,-100.00,WNW,300,22.0,32.0,25,-99.99,,,-99.99,,2013-03-30 00:11:00,
2013-03-29 18:21:00,53.0,19.0,-100.00,NW,305,20.0,24.0,25,-99.99,,,-99.99,,2013-03-30 00:21:00,
2013-03-29 18:32:00,53.0,19.0,-100.00,WNW,300,17.0,21.0,26,-99.99,,,-99.99,,2013-03-30 00:32:00,
2013-03-29 18:42:00,53.0,19.0,-100.00,NW,310,14.0,20.0,25,-99.99,,,-99.99,,2013-03-30 00:42:00,
2013-03-29 18:52:00,53.0,19.0,-100.00,NW,305,16.0,21.0,26,-99.99,,,-99.99,,2013-03-30 00:52:00,
2013-03-29 19:02:00,52.0,19.0,-100.00,NW,305,14.0,18.0,26,-99.99,,,-99.99,,2013-03-30 01:02:00,
2013-03-29 19:11:00,52.0,19.0,-100.00,NW,310,13.0,18.0,27,-99.99,,,-99.99,,2013-03-30 01:11:00,
2013-03-29 19:21:00,50.0,18.0,-100.00,NW,305,12.0,16.0,27,-99.99,,,-99.99,,2013-03-30 01:21:00,
2013-03-29 19:32:00,49.0,18.0,-100.00,NW,310,12.0,16.0,28,-99.99,,,-99.99,,2013-03-30 01:32:00,
2013-03-29 19:42:00,49.0,17.0,-100.00,NW,310,12.0,16.0,28,-99.99,,,-99.99,,2013-03-30 01:42:00,
2013-03-29 19:52:00,47.0,17.0,-100.00,NW,315,9.0,13.0,29,-99.99,,,-99.99,,2013-03-30 01:52:00,
2013-03-29 20:02:00,46.0,17.0,-100.00,NW,310,8.0,11.0,29,-99.99,,,-99.99,,2013-03-30 02:02:00,
2013-03-29 20:11:00,46.0,17.0,-100.00,NW,310,9.0,11.0,30,-99.99,,,-99.99,,2013-03-30 02:11:00,
2013-03-29 20:21:00,45.0,17.0,-100.00,NW,325,4.0,8.0,31,-99.99,,,-99.99,,2013-03-30 02:21:00,
2013-03-29 20:32:00,45.0,16.0,-100.00,NW,305,3.0,7.0,31,-99.99,,,-99.99,,2013-03-30 02:32:00,
2013-03-29 20:41:00,44.0,16.0,-100.00,WNW,290,1.0,3.0,32,-99.99,,,-99.99,,2013-03-30 02:41:00,
2013-03-29 20:52:00,44.0,17.0,-100.00,NE,40,7.0,9.0,32,-99.99,,,-99.99,,2013-03-30 02:52:00,
2013-03-29 21:02:00,44.0,18.0,-100.00,NNE,20,6.0,7.0,34,-99.99,,,-99.99,,2013-03-30 03:02:00,
2013-03-29 21:11:00,45.0,18.0,-100.00,North,5,4.0,7.0,33,-99.99,,,-99.99,,2013-03-30 03:11:00,
2013-03-29 21:21:00,45.0,18.0,-100.00,North,0,4.0,7.0,33,-99.99,,,-99.99,,2013-03-30 03:21:00,
2013-03-29 21:32:00,45.0,18.0,-100.00,NNW,340,6.0,6.0,33,-99.99,,,-99.99,,2013-03-30 03:32:00,
2013-03-29 21:43:00,43.0,17.0,-100.00,North,-999,-999.0,-999.0,34,-99.99,,,-99.99,,2013-03-30 03:43:00,
2013-03-29 21:52:00,42.0,17.0,-100.00,WNW,290,0.0,0.0,35,-99.99,,,-99.99,,2013-03-30 03:52:00,
2013-03-29 22:02:00,42.0,18.0,-100.00,SSE,155,1.0,1.0,36,-99.99,,,-99.99,,2013-03-30 04:02:00,
2013-03-29 22:12:00,43.0,18.0,-100.00,SSE,160,0.0,1.0,36,-99.99,,,-99.99,,2013-03-30 04:12:00,
2013-03-29 22:22:00,42.0,18.0,-100.00,SW,230,1.0,3.0,36,-99.99,,,-99.99,,2013-03-30 04:22:00,
2013-03-29 22:32:00,42.0,18.0,-100.00,WNW,285,2.0,4.0,36,-99.99,,,-99.99,,2013-03-30 04:32:00,
2013-03-29 22:42:00,42.0,18.0,-100.00,WNW,285,4.0,5.0,37,-99.99,,,-99.99,,2013-03-30 04:42:00,
2013-03-29 22:52:00,42.0,18.0,-100.00,WNW,290,3.0,6.0,37,-99.99,,,-99.99,,2013-03-30 04:52:00,
2013-03-29 23:02:00,42.0,18.0,-100.00,WNW,290,5.0,7.0,37,-99.99,,,-99.99,,2013-03-30 05:02:00,
2013-03-29 23:12:00,42.0,18.0,-100.00,WNW,285,6.0,7.0,37,-99.99,,,-99.99,,2013-03-30 05:12:00,
2013-03-29 23:22:00,41.0,17.0,-100.00,WNW,295,2.0,6.0,37,-99.99,,,-99.99,,2013-03-30 05:22:00,
2013-03-29 23:32:00,41.0,17.0,-100.00,West,260,0.0,3.0,37,-99.99,,,-99.99,,2013-03-30 05:32:00,
2013-03-29 23:42:00,42.0,18.0,-100.00,WSW,245,2.0,3.0,37,-99.99,,,-99.99,,2013-03-30 05:42:00,
2013-03-29 23:51:00,41.0,17.0,-100.00,West,280,1.0,4.0,38,-99.99,,,-99.99,,2013-03-30 05:51:00,